Terminal Aerodrome Forecast
Issued by NWS Shreveport, LA

Home | Current Version | Previous Version | Text Only | Print | Product List | Glossary On
Versions: 1 2 3 4 5 6 7 8 9 10 11 12 13 14 15 16 17 18 19 20
824
FTUS44 KSHV 192203 AAD
TAFMLU
TAF AMD
KMLU 192203Z 1922/2018 VRB03KT P6SM FEW030 BKN100
     FM200400 20003KT 3SM BR OVC006
     FM200600 22004KT 1SM BR OVC004
     FM200800 20004KT 3/4SM BR OVC003
     FM201400 21006KT 5SM BR BKN008 OVC012
     FM201600 21009G15KT 5SM BR BKN010=

USA.gov is the U.S. government's official web portal to all federal, state and local government web resources and services.